McHenry, MD

8:57 PM EST on December 08, 2016 (GMT -0500)
Oakland

Weather History for K2G4 - February, 2013

Change the Weather History Date:

Monday, February 18, 2013

  Actual Average (KMGW) Record (KMGW)
Temperature  
Mean Temperature 24 °F -  
Max Temperature 39 °F 45 °F 73 °F (1981)
Min Temperature 8 °F 27 °F -2 °F (1973)
Degree Days  
Heating Degree Days 42    
Moisture  
Dew Point 12 °F    
Average Humidity 61    
Maximum Humidity 79    
Minimum Humidity 34    
Precipitation  
Precipitation 0.00 in - - ()
Sea Level Pressure  
Sea Level Pressure 30.07 in    
Wind  
Wind Speed 9 mph (SSW)    
Max Wind Speed 14 mph    
Max Gust Speed 18 mph    
Visibility 10 miles    
Events      
Averages and records for this station are not official NWS values.
T = Trace of Precipitation, MM = Missing Value Source: NWS Daily Summary

Daily Weather History Graph

Daily Weather History Graph

Search for Another Location

Airport or City:

Trip Planner

Search our weather history database for the weather conditions in past years. The results will help you decide how hot, cold, wet, or windy it might be!

Date:

Astronomy

Feb. 18, 2013 Rise Set
Actual Time 7:05 AM EST 5:57 PM EST
Civil Twilight 6:38 AM EST 6:25 PM EST
Nautical Twilight 6:06 AM EST 6:56 PM EST
Astronomical Twilight 5:35 AM EST 7:27 PM EST
Moon 11:42 AM EST (2/18) 1:43 AM EST (2/18)
Length of Visible Light 11h 47m
Length of Day
10h 52m
First Quarter, 58% of the Moon is Illuminated
Feb 18
First Quarter
Feb 25
Full
Mar 4
Last Quarter
Mar 11
New
Mar 19
First Quarter

Hourly Weather History & Observations

Time (EST) Temp. Windchill Dew Point Humidity Pressure Visibility Wind Dir Wind Speed Gust Speed Precip Events Conditions
12:00 AM 10.4 °F -1.5 °F 3.2 °F 73% 30.06 in 10.0 mi WNW 8.1 mph 18.4 mph N/A   Mostly Cloudy
12:20 AM 10.4 °F -4.1 °F 3.2 °F 73% 30.06 in 10.0 mi WNW 11.5 mph 17.3 mph N/A   Scattered Clouds
12:40 AM 8.6 °F -3.7 °F 3.2 °F 79% 30.06 in 10.0 mi West 8.1 mph - N/A   Clear
1:00 AM 8.6 °F -4.7 °F 3.2 °F 79% 30.06 in 10.0 mi WNW 9.2 mph - N/A   Clear
1:20 AM 8.6 °F -3.7 °F 3.2 °F 79% 30.07 in 10.0 mi WNW 8.1 mph - N/A   Clear
2:00 AM 8.6 °F -1.3 °F 3.2 °F 79% 30.08 in 10.0 mi West 5.8 mph - N/A   Clear
2:20 AM 8.6 °F -2.6 °F 3.2 °F 79% 30.08 in 10.0 mi West 6.9 mph - N/A   Clear
2:40 AM 8.6 °F -4.7 °F 3.2 °F 79% 30.07 in 10.0 mi West 9.2 mph - N/A   Clear
3:00 AM 8.6 °F -5.5 °F 3.2 °F 79% 30.07 in 10.0 mi West 10.4 mph - N/A   Clear
3:20 AM 8.6 °F -4.7 °F 3.2 °F 79% 30.06 in 10.0 mi West 9.2 mph 17.3 mph N/A   Clear
3:40 AM 8.6 °F -4.7 °F 3.2 °F 79% 30.06 in 10.0 mi West 9.2 mph 17.3 mph N/A   Clear
4:00 AM 8.6 °F -5.5 °F 3.2 °F 79% 30.07 in 10.0 mi West 10.4 mph - N/A   Clear
4:20 AM 8.6 °F -5.5 °F 3.2 °F 79% 30.08 in 10.0 mi West 10.4 mph - N/A   Clear
4:40 AM 8.6 °F -4.7 °F 3.2 °F 79% 30.08 in 10.0 mi West 9.2 mph - N/A   Clear
5:00 AM 8.6 °F -4.7 °F 3.2 °F 79% 30.09 in 10.0 mi West 9.2 mph 16.1 mph N/A   Clear
5:20 AM 8.6 °F -3.7 °F 3.2 °F 79% 30.09 in 10.0 mi West 8.1 mph - N/A   Clear
5:40 AM 8.6 °F -2.6 °F 3.2 °F 79% 30.10 in 10.0 mi West 6.9 mph - N/A   Clear
6:20 AM 8.6 °F -2.6 °F 3.2 °F 79% 30.11 in 10.0 mi West 6.9 mph - N/A   Clear
6:40 AM 8.6 °F -2.6 °F 3.2 °F 79% 30.11 in 10.0 mi West 6.9 mph - N/A   Clear
7:20 AM 8.6 °F 0.1 °F 3.2 °F 79% 30.13 in 10.0 mi WSW 4.6 mph - N/A   Clear
7:40 AM 8.6 °F -2.6 °F 3.2 °F 79% 30.13 in 10.0 mi SW 6.9 mph - N/A   Clear
8:00 AM 10.4 °F -0.4 °F 3.2 °F 73% 30.14 in 10.0 mi SW 6.9 mph - N/A   Clear
8:20 AM 12.2 °F 2.9 °F 5.0 °F 73% 30.14 in 10.0 mi SW 5.8 mph - N/A   Clear
8:40 AM 14.0 °F 3.9 °F 5.0 °F 67% 30.15 in 10.0 mi SSW 6.9 mph - N/A   Clear
9:00 AM 15.8 °F 5.1 °F 5.0 °F 62% 30.15 in 10.0 mi SSW 8.1 mph - N/A   Clear
9:20 AM 17.6 °F 9.3 °F 5.0 °F 58% 30.15 in 10.0 mi SSW 5.8 mph - N/A   Clear
9:40 AM 19.4 °F 11.5 °F 5.0 °F 54% 30.15 in 10.0 mi South 5.8 mph - N/A   Clear
10:00 AM 21.2 °F 12.6 °F 5.0 °F 50% 30.15 in 10.0 mi SSW 6.9 mph - N/A   Clear
10:20 AM 23.0 °F 13.9 °F 1.4 °F 39% 30.14 in 10.0 mi SSW 8.1 mph - N/A   Clear
10:40 AM 24.8 °F 14.0 °F 3.2 °F 40% 30.15 in 10.0 mi SSW 11.5 mph - N/A   Clear
11:00 AM 26.6 °F 17.5 °F 3.2 °F 37% 30.15 in 10.0 mi SSW 9.2 mph - N/A   Clear
11:20 AM 28.4 °F 20.4 °F 5.0 °F 37% 30.14 in 10.0 mi South 8.1 mph - N/A   Clear
11:40 AM 30.2 °F 24.3 °F 5.0 °F 34% 30.13 in 10.0 mi South 5.8 mph - N/A   Clear
12:00 PM 30.2 °F 22.6 °F 6.8 °F 37% 30.13 in 10.0 mi South 8.1 mph - N/A   Clear
12:20 PM 32.0 °F 24.8 °F 8.6 °F 38% 30.12 in 10.0 mi South 8.1 mph - N/A   Clear
12:40 PM 33.8 °F 25.8 °F 8.6 °F 35% 30.11 in 10.0 mi SSW 10.4 mph - N/A   Clear
1:00 PM 33.8 °F 26.4 °F 10.4 °F 38% 30.10 in 10.0 mi SSW 9.2 mph - N/A   Clear
1:20 PM 35.6 °F 28.6 °F 12.2 °F 38% 30.09 in 10.0 mi SSW 9.2 mph - N/A   Clear
1:40 PM 35.6 °F 26.6 °F 14.0 °F 41% 30.08 in 10.0 mi SSW 13.8 mph 17.3 mph N/A   Clear
2:00 PM 37.4 °F 31.4 °F 15.8 °F 41% 30.08 in 10.0 mi SSW 8.1 mph - N/A   Clear
2:20 PM 37.4 °F 28.9 °F 17.6 °F 45% 30.06 in 10.0 mi South 13.8 mph - N/A   Clear
2:40 PM 39.2 °F 31.6 °F 19.4 °F 45% 30.06 in 10.0 mi SSW 12.7 mph - N/A   Clear
3:00 PM 39.2 °F 33.6 °F 19.4 °F 45% 30.05 in 10.0 mi South 8.1 mph - N/A   Clear
3:20 PM 39.2 °F 33.0 °F 21.2 °F 49% 30.06 in 10.0 mi SSW 9.2 mph - N/A   Clear
3:40 PM 39.2 °F 32.5 °F 21.2 °F 49% 30.05 in 10.0 mi South 10.4 mph - N/A   Clear
4:00 PM 39.2 °F 32.5 °F 21.2 °F 49% 30.05 in 10.0 mi South 10.4 mph - N/A   Clear
4:20 PM 39.2 °F 32.5 °F 23.0 °F 52% 30.05 in 10.0 mi South 10.4 mph 17.3 mph N/A   Clear
4:40 PM 39.2 °F 32.0 °F 23.0 °F 52% 30.05 in 10.0 mi South 11.5 mph - N/A   Clear
5:00 PM 39.2 °F 32.0 °F 23.0 °F 52% 30.04 in 10.0 mi South 11.5 mph - N/A   Clear
5:20 PM 37.4 °F 29.8 °F 24.8 °F 60% 30.04 in 10.0 mi South 11.5 mph - N/A   Clear
5:40 PM 37.4 °F 29.3 °F 24.8 °F 60% 30.04 in 10.0 mi South 12.7 mph - N/A   Clear
6:00 PM 37.4 °F 30.3 °F 24.8 °F 60% 30.04 in 10.0 mi South 10.4 mph - N/A   Clear
6:20 PM 37.4 °F 30.3 °F 26.6 °F 65% 30.03 in 10.0 mi South 10.4 mph - N/A   Clear
7:00 PM 33.8 °F 25.3 °F 21.2 °F 60% 30.02 in 10.0 mi SSE 11.5 mph - N/A   Clear
7:40 PM 33.8 °F 24.3 °F 21.2 °F 60% 30.02 in 10.0 mi SSE 13.8 mph - N/A   Clear
8:00 PM 35.6 °F 27.5 °F 23.0 °F 60% 30.01 in 10.0 mi SSE 11.5 mph - N/A   Clear
8:20 PM 33.8 °F 24.8 °F 23.0 °F 65% 30.00 in 10.0 mi SSE 12.7 mph - N/A   Clear
8:40 PM 35.6 °F 27.5 °F 23.0 °F 60% 29.99 in 10.0 mi SSE 11.5 mph - N/A   Clear
9:00 PM 33.8 °F 25.3 °F 23.0 °F 65% 29.99 in 10.0 mi SSE 11.5 mph - N/A   Clear
9:20 PM 33.8 °F 25.8 °F 21.2 °F 60% 29.99 in 10.0 mi SSE 10.4 mph - N/A   Clear
9:40 PM 33.8 °F 25.3 °F 21.2 °F 60% 29.98 in 10.0 mi SSE 11.5 mph - N/A   Clear
10:20 PM 33.8 °F 25.3 °F 21.2 °F 60% 29.98 in 10.0 mi SSE 11.5 mph - N/A   Clear
10:40 PM 33.8 °F 25.8 °F 23.0 °F 65% 29.97 in 10.0 mi SSE 10.4 mph - N/A   Clear
11:00 PM 33.8 °F 26.4 °F 23.0 °F 65% 29.96 in 10.0 mi SSE 9.2 mph - N/A   Clear
11:20 PM 33.8 °F 25.8 °F 23.0 °F 65% 29.95 in 10.0 mi SSE 10.4 mph - N/A   Clear
11:40 PM 35.6 °F 26.6 °F 23.0 °F 60% 29.93 in 10.0 mi South 13.8 mph - N/A   Clear